Time;durP1;ratioP1;P1;durP2;ratioP2;P2;SDS_P1;SDS_P2;PMS_P1;PMS_P2;Temp;Humidity;BMP_temperature;BMP_pressure;BME280_temperature;BME280_humidity;BME280_pressure;Samples;Min_cycle;Max_cycle;Signal;HPM_P1;HPM_P2
2023/12/12 00:02:16;;;;;;;;;;;;;;;12.95;58.23;99827.09;4961341;28;6808;-85
2023/12/12 00:04:42;;;;;;;;;;;;;;;12.95;59.33;99821.97;4960424;28;8448;-86
2023/12/12 00:07:07;;;;;;;;;;;;;;;12.96;59.09;99822.84;4956228;28;8676;-85
2023/12/12 00:09:33;;;;;;;;;;;;;;;12.96;59.27;99815.13;4957296;28;8402;-85
2023/12/12 00:11:58;;;;;;;;;;;;;;;12.96;58.84;99810.84;4949410;28;8435;-86
2023/12/12 00:14:24;;;;;;;;;;;;;;;12.97;59.33;99811.72;4952094;28;7124;-85
2023/12/12 00:16:51;;;;;;;;;;;;;;;12.96;58.63;99804.84;4957883;28;8377;-84
2023/12/12 00:19:17;;;;;;;;;;;;;;;12.95;59.24;99809.09;4977701;28;6991;-85
2023/12/12 00:21:42;;;;;;;;;;;;;;;12.96;58.81;99808.25;4960863;28;6952;-85
2023/12/12 00:24:08;;;;;;;;;;;;;;;12.96;58.92;99808.25;4962075;28;8448;-85
2023/12/12 00:26:33;;;;;;;;;;;;;;;12.97;59.15;99798.88;4950804;28;8415;-85
2023/12/12 00:28:59;;;;;;;;;;;;;;;12.96;59.36;99797.97;4960616;28;6799;-86
2023/12/12 00:31:25;;;;;;;;;;;;;;;12.97;58.39;99802.28;4958180;28;8409;-85
2023/12/12 00:33:50;;;;;;;;;;;;;;;12.97;58.75;99791.16;4967011;28;6768;-85
2023/12/12 00:36:16;;;;;;;;;;;;;;;12.96;58.85;99797.13;4964710;28;6980;-85
2023/12/12 00:38:41;;;;;;;;;;;;;;;12.92;59.51;99796.16;4959446;28;6851;-85
2023/12/12 00:41:07;;;;;;;;;;;;;;;12.92;58.95;99797.00;4973504;28;8426;-85
2023/12/12 00:43:32;;;;;;;;;;;;;;;12.88;58.76;99796.88;4951991;28;8607;-86
2023/12/12 00:45:58;;;;;;;;;;;;;;;12.85;59.28;99791.66;4951914;28;7131;-86
2023/12/12 00:48:23;;;;;;;;;;;;;;;12.78;59.04;99788.91;4959195;28;7201;-85
2023/12/12 00:50:49;;;;;;;;;;;;;;;12.76;58.95;99790.56;4946928;28;7010;-86
2023/12/12 00:53:14;;;;;;;;;;;;;;;12.71;59.24;99788.69;4966349;28;7164;-85
2023/12/12 00:55:40;;;;;;;;;;;;;;;12.68;59.83;99792.03;4945643;28;8363;-85
2023/12/12 00:58:05;;;;;;;;;;;;;;;12.67;59.58;99792.00;4968004;28;8346;-86
2023/12/12 01:00:31;;;;;;;;;;;;;;;12.66;59.29;99788.53;4964579;28;7235;-85
2023/12/12 01:02:56;;;;;;;;;;;;;;;12.68;59.55;99783.47;4951270;28;8418;-86
2023/12/12 01:05:22;;;;;;;;;;;;;;;12.67;59.65;99780.00;4956215;28;7142;-86
2023/12/12 01:07:47;;;;;;;;;;;;;;;12.69;59.29;99786.06;4991671;28;6975;-84
2023/12/12 01:10:13;;;;;;;;;;;;;;;12.69;59.44;99772.34;4954582;28;7381;-85
2023/12/12 01:12:38;;;;;;;;;;;;;;;12.71;59.62;99775.81;4977796;28;6985;-84
2023/12/12 01:15:04;;;;;;;;;;;;;;;12.71;59.86;99773.25;4976875;28;7227;-85
2023/12/12 01:17:30;;;;;;;;;;;;;;;12.71;59.59;99765.53;4969270;28;6997;-84
2023/12/12 01:19:56;;;;;;;;;;;;;;;12.70;59.73;99768.94;4963946;28;8383;-85
2023/12/12 01:22:22;;;;;;;;;;;;;;;12.69;59.10;99767.22;4976288;28;7481;-85
2023/12/12 01:24:48;;;;;;;;;;;;;;;12.68;59.27;99770.59;4976241;28;8631;-85
2023/12/12 01:27:13;;;;;;;;;;;;;;;12.63;59.72;99758.47;4971845;28;8442;-85
2023/12/12 01:29:39;;;;;;;;;;;;;;;12.62;59.41;99761.88;4970736;28;6844;-85
2023/12/12 01:32:05;;;;;;;;;;;;;;;12.61;59.29;99765.28;4957407;28;7004;-85
2023/12/12 01:34:30;;;;;;;;;;;;;;;12.56;59.49;99760.81;4973126;28;7170;-84
2023/12/12 01:36:56;;;;;;;;;;;;;;;12.55;59.33;99761.66;4987598;28;7037;-84
2023/12/12 01:39:21;;;;;;;;;;;;;;;12.52;59.74;99769.28;4953251;28;6797;-84
2023/12/12 01:41:47;;;;;;;;;;;;;;;12.47;59.55;99764.00;4973425;28;7198;-84
2023/12/12 01:44:14;;;;;;;;;;;;;;;12.43;59.41;99770.75;4969860;28;8486;-84
2023/12/12 01:46:41;;;;;;;;;;;;;;;12.41;59.26;99779.22;4968950;28;8447;-84
2023/12/12 01:49:08;;;;;;;;;;;;;;;12.32;59.67;99774.69;4970811;28;6792;-84
2023/12/12 01:51:34;;;;;;;;;;;;;;;12.23;59.06;99777.84;4978035;28;7186;-84
2023/12/12 01:54:01;;;;;;;;;;;;;;;12.17;59.49;99775.09;4962617;28;6860;-83
2023/12/12 01:56:28;;;;;;;;;;;;;;;12.14;60.36;99780.09;4986088;28;7019;-84
2023/12/12 01:58:56;;;;;;;;;;;;;;;12.11;59.81;99777.47;4980643;28;8412;-84
2023/12/12 02:01:24;;;;;;;;;;;;;;;12.05;59.86;99773.00;4978020;28;6804;-85
2023/12/12 02:03:51;;;;;;;;;;;;;;;12.00;60.13;99769.38;4959256;28;8639;-84
2023/12/12 02:06:22;;;;;;;;;;;;;;;11.97;59.81;99782.97;4971371;28;8604;-84
2023/12/12 02:08:49;;;;;;;;;;;;;;;11.88;60.01;99783.56;4977086;28;7405;-84
2023/12/12 02:11:15;;;;;;;;;;;;;;;11.86;60.40;99782.63;4956519;28;8532;-84
2023/12/12 02:13:41;;;;;;;;;;;;;;;11.80;60.18;99778.19;4965393;28;8531;-85
2023/12/12 02:16:07;;;;;;;;;;;;;;;11.79;60.63;99781.56;4984324;28;6829;-82
2023/12/12 02:18:33;;;;;;;;;;;;;;;11.79;60.85;99773.88;4961305;28;6800;-82
2023/12/12 02:21:00;;;;;;;;;;;;;;;11.79;60.46;99776.44;4943842;28;7060;-82
2023/12/12 02:23:29;;;;;;;;;;;;;;;11.81;60.88;99779.03;4962284;28;6988;-82
2023/12/12 02:25:55;;;;;;;;;;;;;;;11.84;60.56;99779.16;4958325;28;8780;-82
2023/12/12 02:28:21;;;;;;;;;;;;;;;11.85;60.72;99774.88;4951841;28;7003;-84
2023/12/12 02:30:46;;;;;;;;;;;;;;;11.88;60.88;99769.81;4967348;28;7237;-83
2023/12/12 02:33:12;;;;;;;;;;;;;;;11.89;60.40;99774.16;4967525;28;6771;-82
2023/12/12 02:35:37;;;;;;;;;;;;;;;11.91;60.80;99767.38;4942899;28;6807;-82
2023/12/12 02:38:03;;;;;;;;;;;;;;;11.93;60.82;99766.63;4967692;28;8399;-82
2023/12/12 02:40:28;;;;;;;;;;;;;;;11.98;61.44;99768.44;4961490;28;6787;-83
2023/12/12 02:42:54;;;;;;;;;;;;;;;12.02;61.22;99763.50;4958844;28;6779;-82
2023/12/12 02:45:19;;;;;;;;;;;;;;;12.08;61.23;99753.44;4980819;28;7308;-83
2023/12/12 02:47:45;;;;;;;;;;;;;;;12.14;61.53;99757.88;4961115;28;7096;-82
2023/12/12 02:50:10;;;;;;;;;;;;;;;12.19;61.71;99758.88;4949862;28;8582;-83
2023/12/12 02:52:36;;;;;;;;;;;;;;;12.24;61.38;99753.03;4975791;28;7005;-82
2023/12/12 02:55:02;;;;;;;;;;;;;;;12.29;61.04;99756.59;4957555;28;8273;-84
2023/12/12 02:57:28;;;;;;;;;;;;;;;12.32;61.27;99751.56;4965663;28;7508;-82
2023/12/12 02:59:53;;;;;;;;;;;;;;;12.34;60.93;99748.19;4954076;28;8458;-82
2023/12/12 03:02:18;;;;;;;;;;;;;;;12.35;60.68;99747.38;4961803;28;6784;-82
2023/12/12 03:04:45;;;;;;;;;;;;;;;12.31;61.19;99742.97;4959943;28;6787;-82
2023/12/12 03:07:11;;;;;;;;;;;;;;;12.29;60.12;99749.78;4951055;28;6977;-82
2023/12/12 03:09:37;;;;;;;;;;;;;;;12.25;60.53;99742.78;4949207;28;6982;-82
2023/12/12 03:12:03;;;;;;;;;;;;;;;12.20;60.21;99744.34;4963206;28;7204;-82
2023/12/12 03:14:29;;;;;;;;;;;;;;;12.14;60.33;99736.44;4948998;28;8242;-83
2023/12/12 03:16:55;;;;;;;;;;;;;;;12.08;60.74;99743.16;4947314;28;8453;-82
2023/12/12 03:19:22;;;;;;;;;;;;;;;12.04;60.49;99749.00;4968041;28;6862;-82
2023/12/12 03:21:48;;;;;;;;;;;;;;;11.99;60.72;99745.41;4973888;28;6819;-83
2023/12/12 03:24:13;;;;;;;;;;;;;;;11.97;60.60;99747.00;4982266;28;7042;-82
2023/12/12 03:26:39;;;;;;;;;;;;;;;11.97;60.99;99741.88;4965689;28;6868;-82
2023/12/12 03:29:04;;;;;;;;;;;;;;;11.94;60.15;99744.38;4966828;28;6822;-82
2023/12/12 03:31:30;;;;;;;;;;;;;;;11.88;60.47;99739.91;4976194;28;8420;-83
2023/12/12 03:33:55;;;;;;;;;;;;;;;11.79;60.08;99742.16;4966822;28;7359;-82
2023/12/12 03:36:21;;;;;;;;;;;;;;;11.69;60.19;99729.88;4959311;28;7107;-82
2023/12/12 03:38:46;;;;;;;;;;;;;;;11.60;59.83;99730.44;4941414;28;7113;-82
2023/12/12 03:41:12;;;;;;;;;;;;;;;11.51;59.98;99726.75;4961059;28;6898;-83
2023/12/12 03:43:38;;;;;;;;;;;;;;;11.46;60.84;99723.13;4967029;28;7056;-82
2023/12/12 03:46:03;;;;;;;;;;;;;;;11.41;60.71;99717.00;4967011;28;8459;-82
2023/12/12 03:48:29;;;;;;;;;;;;;;;11.37;60.90;99716.03;4962605;28;8309;-82
2023/12/12 03:50:54;;;;;;;;;;;;;;;11.37;61.31;99699.75;4940498;28;8409;-84
2023/12/12 03:53:20;;;;;;;;;;;;;;;11.37;61.07;99695.50;4951459;28;8393;-81
2023/12/12 03:55:46;;;;;;;;;;;;;;;11.42;61.53;99693.09;4966163;28;6829;-82
2023/12/12 03:58:11;;;;;;;;;;;;;;;11.48;61.61;99683.00;4966457;28;6871;-83
2023/12/12 04:00:37;;;;;;;;;;;;;;;11.57;62.19;99682.44;4965906;28;7027;-82
2023/12/12 04:03:02;;;;;;;;;;;;;;;11.65;61.55;99675.88;4957658;28;6784;-82
2023/12/12 04:05:28;;;;;;;;;;;;;;;11.72;61.53;99670.91;4945322;28;8488;-83
2023/12/12 04:07:53;;;;;;;;;;;;;;;11.78;61.64;99672.00;4964987;28;8398;-82
2023/12/12 04:10:19;;;;;;;;;;;;;;;11.85;61.45;99675.63;4965108;28;6955;-83
2023/12/12 04:12:44;;;;;;;;;;;;;;;11.89;61.62;99666.31;4958424;28;8505;-81
2023/12/12 04:15:10;;;;;;;;;;;;;;;11.95;61.29;99667.38;4956034;28;8461;-82
2023/12/12 04:17:35;;;;;;;;;;;;;;;12.03;61.70;99659.06;4957458;28;8513;-82
2023/12/12 04:20:01;;;;;;;;;;;;;;;12.05;61.28;99660.84;4960103;28;8392;-82
2023/12/12 04:22:26;;;;;;;;;;;;;;;12.07;60.59;99655.75;4960936;28;7182;-82
2023/12/12 04:24:52;;;;;;;;;;;;;;;12.04;61.16;99659.09;4965988;28;7194;-83
2023/12/12 04:27:17;;;;;;;;;;;;;;;12.01;61.08;99661.56;4964239;28;7557;-82
2023/12/12 04:29:43;;;;;;;;;;;;;;;12.01;60.68;99658.97;4958626;28;6950;-82
2023/12/12 04:32:08;;;;;;;;;;;;;;;12.00;61.18;99656.38;4952126;28;8845;-82
2023/12/12 04:34:34;;;;;;;;;;;;;;;12.01;61.06;99658.97;4951738;28;8422;-82
2023/12/12 04:37:01;;;;;;;;;;;;;;;12.04;61.28;99653.97;4963719;28;6994;-83
2023/12/12 04:39:29;;;;;;;;;;;;;;;12.07;61.36;99663.47;4952512;28;8482;-84
2023/12/12 04:41:55;;;;;;;;;;;;;;;12.10;60.82;99657.56;4972659;28;8560;-84
2023/12/12 04:44:21;;;;;;;;;;;;;;;12.15;61.26;99653.41;4980385;28;8526;-85
2023/12/12 04:46:46;;;;;;;;;;;;;;;12.19;61.35;99662.97;4961232;28;7388;-84
2023/12/12 04:49:12;;;;;;;;;;;;;;;12.21;61.17;99656.16;4957092;28;7144;-84
2023/12/12 04:51:37;;;;;;;;;;;;;;;12.27;61.57;99656.38;4959118;28;8470;-84
2023/12/12 04:54:03;;;;;;;;;;;;;;;12.31;61.22;99647.91;4965381;28;6780;-85
2023/12/12 04:56:28;;;;;;;;;;;;;;;12.36;60.76;99653.16;4957734;28;8353;-84
2023/12/12 04:58:54;;;;;;;;;;;;;;;12.38;60.15;99643.81;4956277;28;8379;-85
2023/12/12 05:01:20;;;;;;;;;;;;;;;12.40;60.20;99646.44;4969676;28;6974;-84
2023/12/12 05:03:45;;;;;;;;;;;;;;;12.40;60.36;99636.16;4976365;28;6947;-84
2023/12/12 05:06:12;;;;;;;;;;;;;;;12.39;60.80;99637.84;4968252;28;7588;-84
2023/12/12 05:08:37;;;;;;;;;;;;;;;12.40;60.46;99631.00;4972970;28;6792;-84
2023/12/12 05:11:04;;;;;;;;;;;;;;;12.42;60.28;99627.66;4966406;28;6800;-84
2023/12/12 05:13:31;;;;;;;;;;;;;;;12.43;60.33;99624.25;4956971;28;8547;-84
2023/12/12 05:15:56;;;;;;;;;;;;;;;12.47;60.91;99620.94;4963758;28;8431;-84
2023/12/12 05:18:22;;;;;;;;;;;;;;;12.52;60.94;99628.78;4959541;28;7097;-85
2023/12/12 05:20:48;;;;;;;;;;;;;;;12.54;61.08;99621.97;4975474;28;6788;-84
2023/12/12 05:23:13;;;;;;;;;;;;;;;12.57;60.99;99616.94;4953965;28;8562;-84
2023/12/12 05:25:40;;;;;;;;;;;;;;;12.61;61.02;99620.47;4974502;28;8780;-84
2023/12/12 05:28:05;;;;;;;;;;;;;;;12.63;60.80;99614.50;4978750;28;7381;-84
2023/12/12 05:30:33;;;;;;;;;;;;;;;12.68;61.22;99616.34;4967219;28;6788;-84
2023/12/12 05:32:58;;;;;;;;;;;;;;;12.71;60.55;99616.41;4975004;28;6974;-84
2023/12/12 05:35:24;;;;;;;;;;;;;;;12.76;60.66;99612.28;4989030;28;6795;-83
2023/12/12 05:37:51;;;;;;;;;;;;;;;12.80;61.06;99621.81;4944765;28;6915;-83
2023/12/12 05:40:16;;;;;;;;;;;;;;;12.84;60.96;99617.63;4970844;28;7077;-84
2023/12/12 05:42:42;;;;;;;;;;;;;;;12.90;60.73;99625.50;4963097;28;6941;-82
2023/12/12 05:45:09;;;;;;;;;;;;;;;12.95;60.79;99615.34;4950354;28;8407;-82
2023/12/12 05:47:36;;;;;;;;;;;;;;;12.97;60.29;99622.25;4961957;28;7090;-82
2023/12/12 05:50:02;;;;;;;;;;;;;;;13.02;60.55;99612.94;4985443;28;6955;-82
2023/12/12 05:52:28;;;;;;;;;;;;;;;13.07;60.11;99615.66;4970190;28;8674;-83
2023/12/12 05:54:54;;;;;;;;;;;;;;;13.11;60.39;99614.03;4983290;28;6804;-82
2023/12/12 05:57:20;;;;;;;;;;;;;;;13.13;60.50;99609.78;4961356;28;7160;-82
2023/12/12 05:59:47;;;;;;;;;;;;;;;13.17;60.63;99611.59;4978837;28;6803;-82
2023/12/12 06:02:12;;;;;;;;;;;;;;;13.19;60.12;99610.78;4954722;28;8731;-82
2023/12/12 06:04:38;;;;;;;;;;;;;;;13.24;60.25;99607.47;4959500;28;7010;-82
2023/12/12 06:07:05;;;;;;;;;;;;;;;13.26;59.70;99605.81;4952227;28;7398;-82
2023/12/12 06:09:31;;;;;;;;;;;;;;;13.28;59.38;99599.88;4981422;28;7141;-82
2023/12/12 06:11:57;;;;;;;;;;;;;;;13.30;60.28;99595.63;4953217;28;8689;-82
2023/12/12 06:14:23;;;;;;;;;;;;;;;13.34;59.45;99594.00;4964251;28;6800;-82
2023/12/12 06:16:48;;;;;;;;;;;;;;;13.37;59.36;99600.91;4960917;28;6776;-82
2023/12/12 06:19:14;;;;;;;;;;;;;;;13.38;59.32;99594.94;4978993;28;6779;-82
2023/12/12 06:21:39;;;;;;;;;;;;;;;13.39;59.34;99592.38;4963266;28;6780;-82
2023/12/12 06:24:05;;;;;;;;;;;;;;;13.41;59.03;99593.28;4961155;28;6992;-81
2023/12/12 06:26:31;;;;;;;;;;;;;;;13.41;58.98;99585.56;4974861;28;8582;-83
2023/12/12 06:28:57;;;;;;;;;;;;;;;13.41;59.01;99590.72;4969945;28;6852;-82
2023/12/12 06:31:23;;;;;;;;;;;;;;;13.41;59.46;99577.84;4967647;28;9009;-83
2023/12/12 06:33:50;;;;;;;;;;;;;;;13.46;59.11;99584.00;4981473;28;6804;-82
2023/12/12 06:36:15;;;;;;;;;;;;;;;13.47;58.85;99582.28;4959468;28;7587;-83
2023/12/12 06:38:42;;;;;;;;;;;;;;;13.49;59.25;99583.22;4968069;28;8497;-83
2023/12/12 06:41:11;;;;;;;;;;;;;;;13.52;58.37;99588.44;4967060;28;7007;-83
2023/12/12 06:43:36;;;;;;;;;;;;;;;13.53;58.29;99579.03;4957952;28;8449;-83
2023/12/12 06:46:02;;;;;;;;;;;;;;;13.55;58.04;99573.03;4962990;28;8614;-84
2023/12/12 06:48:28;;;;;;;;;;;;;;;13.57;58.40;99575.66;4969781;28;6784;-84
2023/12/12 06:50:53;;;;;;;;;;;;;;;13.58;58.52;99567.09;4965882;28;7850;-84
2023/12/12 06:53:19;;;;;;;;;;;;;;;13.58;57.80;99567.09;4952261;28;8910;-85
2023/12/12 06:55:45;;;;;;;;;;;;;;;13.57;57.89;99561.09;4963854;28;7038;-85
2023/12/12 06:58:11;;;;;;;;;;;;;;;13.58;57.96;99551.66;4947998;28;7111;-85
2023/12/12 07:00:40;;;;;;;;;;;;;;;13.58;57.51;99555.13;4956816;28;7098;-86
2023/12/12 07:03:05;;;;;;;;;;;;;;;13.60;57.86;99548.28;4964247;28;6993;-85
2023/12/12 07:05:31;;;;;;;;;;;;;;;13.62;57.74;99548.34;4972983;28;7222;-84
2023/12/12 07:07:57;;;;;;;;;;;;;;;13.63;57.26;99547.50;4956148;28;8791;-85
2023/12/12 07:12:50;;;;;;;;;;;;;;;13.65;57.46;99545.81;4998599;28;6933;-74
2023/12/12 07:15:15;;;;;;;;;;;;;;;13.64;56.80;99546.66;4986954;28;6791;-74
2023/12/12 07:17:41;;;;;;;;;;;;;;;13.64;57.39;99540.63;4982923;28;7266;-74
2023/12/12 07:20:07;;;;;;;;;;;;;;;13.65;57.02;99542.34;5002618;28;6916;-74
2023/12/12 07:22:32;;;;;;;;;;;;;;;13.66;56.52;99536.38;4980314;28;7360;-74
2023/12/12 07:24:57;;;;;;;;;;;;;;;13.66;57.21;99537.25;4998455;28;6923;-74
2023/12/12 07:27:23;;;;;;;;;;;;;;;13.66;56.74;99532.09;4981515;28;6851;-74
2023/12/12 07:29:49;;;;;;;;;;;;;;;13.67;57.51;99532.97;4986096;28;6951;-75
2023/12/12 07:32:14;;;;;;;;;;;;;;;13.67;57.35;99527.84;4968122;28;6930;-73
2023/12/12 07:34:40;;;;;;;;;;;;;;;13.69;56.50;99529.59;4980708;28;6938;-74
2023/12/12 07:37:06;;;;;;;;;;;;;;;13.70;56.90;99528.75;4974647;28;6788;-77
2023/12/12 07:39:31;;;;;;;;;;;;;;;13.70;56.81;99530.47;4961471;28;7779;-75
2023/12/12 07:41:57;;;;;;;;;;;;;;;13.70;56.85;99526.16;4975899;28;6791;-74
2023/12/12 07:44:23;;;;;;;;;;;;;;;13.70;57.23;99523.59;4973587;28;6852;-74
2023/12/12 07:46:48;;;;;;;;;;;;;;;13.71;56.12;99527.06;4970294;28;6894;-74
2023/12/12 07:49:14;;;;;;;;;;;;;;;13.70;56.70;99515.88;4994131;28;7253;-75
2023/12/12 07:51:39;;;;;;;;;;;;;;;13.73;57.38;99525.38;4975722;28;7241;-74
2023/12/12 07:54:06;;;;;;;;;;;;;;;13.74;56.50;99525.41;4978567;28;6862;-76
2023/12/12 07:56:31;;;;;;;;;;;;;;;13.75;56.25;99516.84;4998682;28;6804;-75
2023/12/12 07:58:57;;;;;;;;;;;;;;;13.79;56.32;99522.06;4976826;28;6783;-76
2023/12/12 08:01:22;;;;;;;;;;;;;;;13.81;56.92;99513.53;4979874;28;6851;-74
2023/12/12 08:03:48;;;;;;;;;;;;;;;13.84;55.98;99508.44;4980363;28;6976;-77
2023/12/12 08:06:13;;;;;;;;;;;;;;;13.86;56.24;99509.34;5001244;28;6827;-74
2023/12/12 08:08:38;;;;;;;;;;;;;;;13.89;56.05;99505.94;4988291;28;7263;-74
2023/12/12 08:11:04;;;;;;;;;;;;;;;13.90;56.75;99512.81;4984960;28;7191;-74
2023/12/12 08:13:30;;;;;;;;;;;;;;;13.92;56.39;99511.19;4974404;28;6976;-76
2023/12/12 08:15:56;;;;;;;;;;;;;;;13.94;56.42;99508.63;5003616;28;6967;-73
2023/12/12 08:18:22;;;;;;;;;;;;;;;13.96;57.17;99512.97;5001599;28;7200;-75
2023/12/12 08:20:47;;;;;;;;;;;;;;;13.96;56.43;99514.69;4968711;28;6964;-74
2023/12/12 08:23:13;;;;;;;;;;;;;;;13.95;56.39;99512.91;4984121;28;6965;-73
2023/12/12 08:25:38;;;;;;;;;;;;;;;13.96;56.90;99518.13;4995456;28;7187;-75
2023/12/12 08:28:04;;;;;;;;;;;;;;;13.96;56.64;99523.25;4973015;28;6971;-74
2023/12/12 08:30:30;;;;;;;;;;;;;;;13.97;56.30;99514.69;5000838;28;6776;-73
2023/12/12 08:32:55;;;;;;;;;;;;;;;14.00;57.11;99512.19;4978391;28;6980;-74
2023/12/12 08:35:21;;;;;;;;;;;;;;;14.02;57.00;99502.78;4973394;28;6946;-76
2023/12/12 08:37:47;;;;;;;;;;;;;;;14.05;56.67;99499.41;4979274;28;6987;-74
2023/12/12 08:40:13;;;;;;;;;;;;;;;14.10;56.19;99500.34;4953092;28;7159;-76
2023/12/12 08:42:39;;;;;;;;;;;;;;;14.13;56.89;99496.97;4968572;28;7089;-77
2023/12/12 08:45:05;;;;;;;;;;;;;;;14.17;56.12;99498.75;4959234;28;7406;-76
2023/12/12 08:47:30;;;;;;;;;;;;;;;14.22;56.34;99493.69;4963392;28;7264;-76
2023/12/12 08:49:56;;;;;;;;;;;;;;;14.28;55.99;99488.66;4977891;28;7006;-73
2023/12/12 08:52:21;;;;;;;;;;;;;;;14.37;56.28;99493.09;4968188;28;7198;-75
2023/12/12 08:54:47;;;;;;;;;;;;;;;14.44;56.56;99489.78;4968272;28;6996;-76
2023/12/12 08:57:15;;;;;;;;;;;;;;;14.51;55.95;99494.22;4970891;28;7018;-76
2023/12/12 08:59:40;;;;;;;;;;;;;;;14.55;55.68;99482.25;4960436;28;6823;-73
2023/12/12 09:02:06;;;;;;;;;;;;;;;14.60;55.95;99472.88;4967192;28;6965;-73
2023/12/12 09:04:32;;;;;;;;;;;;;;;14.63;55.87;99477.22;4948128;28;6967;-80
2023/12/12 09:06:59;;;;;;;;;;;;;;;14.64;55.31;99476.38;4975646;28;7001;-77
2023/12/12 09:09:27;;;;;;;;;;;;;;;14.65;55.45;99460.06;4971506;28;6792;-81
2023/12/12 09:11:53;;;;;;;;;;;;;;;14.67;56.00;99458.38;4987245;28;6796;-79
2023/12/12 09:14:18;;;;;;;;;;;;;;;14.71;55.99;99452.44;4969566;28;6964;-79
2023/12/12 09:16:43;;;;;;;;;;;;;;;14.76;55.82;99449.97;4986662;28;6788;-76
2023/12/12 09:19:11;;;;;;;;;;;;;;;14.82;56.00;99444.88;4974114;28;6859;-80
2023/12/12 09:21:37;;;;;;;;;;;;;;;14.91;55.95;99439.00;4985956;28;6892;-82
2023/12/12 09:24:02;;;;;;;;;;;;;;;14.98;55.97;99431.38;4973867;28;6887;-81
2023/12/12 09:26:28;;;;;;;;;;;;;;;15.07;56.14;99427.19;4979562;28;6784;-79
2023/12/12 09:28:53;;;;;;;;;;;;;;;15.12;55.49;99439.31;4971379;28;6820;-82
2023/12/12 09:31:27;;;;;;;;;;;;;;;15.18;55.66;99432.50;4972232;28;6792;-80
2023/12/12 09:33:52;;;;;;;;;;;;;;;15.24;55.86;99422.25;4971556;28;7358;-77
2023/12/12 09:36:19;;;;;;;;;;;;;;;15.31;55.79;99421.50;4994066;28;7139;-80
2023/12/12 09:38:45;;;;;;;;;;;;;;;15.39;55.63;99416.41;4984198;28;7172;-79
2023/12/12 09:41:24;;;;;;;;;;;;;;;15.47;55.56;99403.63;4974123;28;7298;-78
2023/12/12 09:43:50;;;;;;;;;;;;;;;15.57;55.73;99405.47;4992391;28;6816;-81
2023/12/12 09:46:17;;;;;;;;;;;;;;;15.66;55.06;99405.56;4996900;28;6967;-76
2023/12/12 09:48:44;;;;;;;;;;;;;;;15.74;55.09;99402.19;4994269;28;7149;-80
2023/12/12 09:51:12;;;;;;;;;;;;;;;15.78;54.90;99403.97;4977059;28;6981;-81
2023/12/12 09:53:40;;;;;;;;;;;;;;;15.78;54.85;99399.66;4969947;28;6943;-79
2023/12/12 09:56:07;;;;;;;;;;;;;;;15.78;54.81;99391.03;4981877;28;7255;-79
2023/12/12 09:58:33;;;;;;;;;;;;;;;15.78;54.26;99393.63;4974843;28;7005;-82
2023/12/12 10:01:02;;;;;;;;;;;;;;;15.77;54.65;99386.72;4990269;28;6875;-81
2023/12/12 10:03:28;;;;;;;;;;;;;;;15.76;54.65;99379.84;4977139;28;7296;-80
2023/12/12 10:05:56;;;;;;;;;;;;;;;15.76;54.60;99374.66;4991273;28;6981;-78
2023/12/12 10:08:23;;;;;;;;;;;;;;;15.77;54.51;99361.75;4995372;28;6788;-80
2023/12/12 10:10:52;;;;;;;;;;;;;;;15.80;54.43;99358.34;4996173;28;6963;-82
2023/12/12 10:13:19;;;;;;;;;;;;;;;15.83;54.37;99348.91;4989278;28;6792;-79
2023/12/12 10:15:44;;;;;;;;;;;;;;;15.88;54.02;99348.06;4974790;28;7094;-78
2023/12/12 10:18:10;;;;;;;;;;;;;;;15.88;54.27;99341.19;4978797;28;7239;-81
2023/12/12 10:20:35;;;;;;;;;;;;;;;15.86;54.19;99329.97;4988624;28;6991;-77
2023/12/12 10:23:03;;;;;;;;;;;;;;;15.86;53.95;99331.69;4979186;28;7063;-80
2023/12/12 10:25:30;;;;;;;;;;;;;;;15.85;54.37;99323.09;4983820;28;7226;-81
2023/12/12 10:27:56;;;;;;;;;;;;;;;15.85;54.15;99317.03;4968390;28;6804;-81
2023/12/12 10:30:22;;;;;;;;;;;;;;;15.85;53.94;99325.69;4977256;28;6999;-81
2023/12/12 10:32:51;;;;;;;;;;;;;;;15.79;54.07;99323.91;4976799;28;6805;-78
2023/12/12 10:35:17;;;;;;;;;;;;;;;15.75;53.86;99319.53;4958840;28;7580;-76
2023/12/12 10:37:42;;;;;;;;;;;;;;;15.71;54.15;99319.50;4959626;28;7757;-80
2023/12/12 10:40:11;;;;;;;;;;;;;;;15.68;53.80;99316.03;4986678;28;6934;-81
2023/12/12 10:42:37;;;;;;;;;;;;;;;15.68;54.36;99317.75;4977476;28;7210;-80
2023/12/12 10:45:06;;;;;;;;;;;;;;;15.68;54.23;99305.72;4994861;28;6987;-82
2023/12/12 10:47:34;;;;;;;;;;;;;;;15.74;54.19;99304.00;4995135;28;6964;-80
2023/12/12 10:50:02;;;;;;;;;;;;;;;15.78;54.42;99300.63;4978987;28;6800;-80
2023/12/12 10:52:30;;;;;;;;;;;;;;;15.82;54.53;99295.50;4964276;28;6804;-77
2023/12/12 10:54:57;;;;;;;;;;;;;;;15.89;54.17;99304.16;4976418;28;6993;-82
2023/12/12 10:57:24;;;;;;;;;;;;;;;15.94;54.11;99305.13;4974916;28;7275;-80
2023/12/12 10:59:52;;;;;;;;;;;;;;;15.93;54.52;99298.22;4996550;28;6808;-79
2023/12/12 11:02:18;;;;;;;;;;;;;;;15.90;54.49;99289.53;4982221;28;6808;-79
2023/12/12 11:04:45;;;;;;;;;;;;;;;15.79;54.19;99282.56;4984844;28;6879;-76
2023/12/12 11:07:11;;;;;;;;;;;;;;;15.65;53.88;99285.03;4989458;28;7350;-78
2023/12/12 11:09:37;;;;;;;;;;;;;;;15.48;54.10;99279.69;4979109;28;6856;-76
2023/12/12 11:12:05;;;;;;;;;;;;;;;15.30;54.52;99272.63;4989321;28;7189;-76
2023/12/12 11:14:32;;;;;;;;;;;;;;;15.10;54.84;99270.69;5003277;28;6816;-76
2023/12/12 11:16:59;;;;;;;;;;;;;;;14.95;54.96;99271.38;4984623;28;6878;-76
2023/12/12 11:19:26;;;;;;;;;;;;;;;14.84;55.27;99258.34;4990433;28;7054;-76
2023/12/12 11:21:52;;;;;;;;;;;;;;;14.78;56.02;99258.28;4992276;23;6792;-85
2023/12/12 11:24:20;;;;;;;;;;;;;;;14.74;55.73;99251.31;4980035;28;7011;-84
2023/12/12 11:26:52;;;;;;;;;;;;;;;14.68;56.01;99236.63;4990493;28;6975;-84
2023/12/12 11:29:23;;;;;;;;;;;;;;;14.66;56.99;99237.44;4995635;28;7053;-82
2023/12/12 11:32:05;;;;;;;;;;;;;;;14.64;57.09;99231.41;4998230;28;8462;-82
2023/12/12 11:34:36;;;;;;;;;;;;;;;14.63;56.58;99225.41;4994511;28;8285;-82
2023/12/12 11:37:02;;;;;;;;;;;;;;;14.57;56.72;99227.88;4982865;28;9050;-85
2023/12/12 11:39:29;;;;;;;;;;;;;;;14.53;57.19;99221.81;5013657;28;7026;-84
2023/12/12 11:41:59;;;;;;;;;;;;;;;14.47;57.61;99219.16;4999954;28;7175;-84
2023/12/12 11:44:26;;;;;;;;;;;;;;;14.44;58.11;99213.97;5008879;28;6995;-85
2023/12/12 11:46:53;;;;;;;;;;;;;;;14.46;58.14;99219.16;5001326;28;7007;-82
2023/12/12 11:49:26;;;;;;;;;;;;;;;14.41;58.17;99217.34;5002626;28;7457;-82
2023/12/12 11:51:53;;;;;;;;;;;;;;;14.44;58.65;99208.81;4996459;28;7029;-84
2023/12/12 11:54:25;;;;;;;;;;;;;;;14.46;58.62;99208.84;4997195;28;7174;-84
2023/12/12 11:56:59;;;;;;;;;;;;;;;14.43;58.51;99204.50;4996375;28;7251;-84
2023/12/12 11:59:32;;;;;;;;;;;;;;;14.43;58.84;99196.75;5013581;28;6947;-84
2023/12/12 12:01:59;;;;;;;;;;;;;;;14.49;58.82;99202.00;4988030;28;8443;-84
2023/12/12 12:04:26;;;;;;;;;;;;;;;14.51;58.37;99190.00;5006438;28;7187;-85
2023/12/12 12:06:53;;;;;;;;;;;;;;;14.58;59.30;99190.94;5005906;28;6826;-82
2023/12/12 12:09:19;;;;;;;;;;;;;;;14.65;59.41;99185.00;4991126;28;6996;-82
2023/12/12 12:11:51;;;;;;;;;;;;;;;14.75;59.40;99186.00;5009464;28;6796;-83
2023/12/12 12:14:27;;;;;;;;;;;;;;;14.82;59.45;99182.66;5006093;28;7230;-82
2023/12/12 12:16:54;;;;;;;;;;;;;;;14.89;59.45;99169.84;4971709;28;7070;-83
2023/12/12 12:19:37;;;;;;;;;;;;;;;14.95;59.16;99169.88;4971211;28;7156;-81
2023/12/12 12:22:02;;;;;;;;;;;;;;;14.97;59.61;99166.47;4988857;28;7187;-82
2023/12/12 12:24:30;;;;;;;;;;;;;;;15.01;59.22;99154.47;4989154;28;6922;-82
2023/12/12 12:26:55;;;;;;;;;;;;;;;15.08;59.00;99153.69;5003128;28;7179;-81
2023/12/12 12:29:21;;;;;;;;;;;;;;;15.15;58.94;99152.03;5002411;28;7184;-82
2023/12/12 12:31:47;;;;;;;;;;;;;;;15.24;59.16;99136.63;5012536;28;6961;-82
2023/12/12 12:34:22;;;;;;;;;;;;;;;15.35;59.52;99136.69;5013474;28;7252;-82
2023/12/12 12:36:48;;;;;;;;;;;;;;;15.47;59.39;99137.66;5005209;28;6888;-83
2023/12/12 12:39:15;;;;;;;;;;;;;;;15.54;59.51;99132.56;4998720;28;7127;-85
2023/12/12 12:41:43;;;;;;;;;;;;;;;15.60;59.05;99134.31;5000148;28;7294;-85
2023/12/12 12:44:10;;;;;;;;;;;;;;;15.59;58.91;99130.00;4979302;28;7182;-85
2023/12/12 12:46:39;;;;;;;;;;;;;;;15.61;58.93;99132.63;4993729;28;8656;-85
2023/12/12 12:49:05;;;;;;;;;;;;;;;15.61;58.79;99127.44;5000237;28;7080;-85
2023/12/12 12:51:30;;;;;;;;;;;;;;;15.63;59.05;99128.31;4981959;28;7168;-85
2023/12/12 12:53:56;;;;;;;;;;;;;;;15.69;59.29;99116.31;5013769;28;6956;-85
2023/12/12 12:56:21;;;;;;;;;;;;;;;15.73;59.04;99111.16;4998332;28;6973;-85